Time;durP1;ratioP1;P1;durP2;ratioP2;P2;SDS_P1;SDS_P2;PMS_P1;PMS_P2;Temp;Humidity;BMP_temperature;BMP_pressure;BME280_temperature;BME280_humidity;BME280_pressure;Samples;Min_cycle;Max_cycle;Signal;HPM_P1;HPM_P2
2022/06/16 00:00:17;;;;;;;8.48;3.58;;;18.70;84.30;;;;;;5079307;28;20103;-58
2022/06/16 00:02:46;;;;;;;8.23;2.97;;;18.70;85.70;;;;;;5083228;28;20087;-59
2022/06/16 00:05:15;;;;;;;9.88;3.13;;;18.70;85.30;;;;;;5074421;28;20392;-60
2022/06/16 00:07:42;;;;;;;9.55;3.22;;;18.70;85.60;;;;;;5077376;28;20079;-59
2022/06/16 00:10:09;;;;;;;6.55;2.83;;;18.70;85.80;;;;;;5077034;28;20040;-64
2022/06/16 00:12:36;;;;;;;11.80;3.47;;;18.70;86.30;;;;;;5073475;28;20135;-59
2022/06/16 00:15:04;;;;;;;6.85;2.88;;;18.60;86.70;;;;;;5078994;28;20073;-60
2022/06/16 00:17:31;;;;;;;11.00;5.38;;;18.60;87.40;;;;;;5073075;28;20579;-59
2022/06/16 00:19:58;;;;;;;8.73;3.30;;;18.50;87.80;;;;;;5080437;28;20127;-59
2022/06/16 00:22:25;;;;;;;14.20;3.17;;;18.50;88.40;;;;;;5072928;28;20566;-59
2022/06/16 00:24:51;;;;;;;13.48;3.05;;;18.50;88.90;;;;;;5080659;28;20571;-59
2022/06/16 00:27:18;;;;;;;6.18;3.25;;;18.40;89.50;;;;;;5073081;28;20491;-59
2022/06/16 00:29:45;;;;;;;19.95;4.93;;;18.40;90.00;;;;;;5080226;28;20495;-60
2022/06/16 00:32:12;;;;;;;9.52;2.97;;;18.30;90.40;;;;;;5073062;28;20044;-60
2022/06/16 00:34:39;;;;;;;10.75;3.17;;;18.20;90.60;;;;;;5079286;28;20099;-59
2022/06/16 00:37:06;;;;;;;9.80;4.90;;;18.20;90.80;;;;;;5073616;28;20078;-59
2022/06/16 00:39:33;;;;;;;9.48;4.38;;;18.20;91.00;;;;;;5078447;28;20135;-59
2022/06/16 00:42:11;;;;;;;11.65;2.95;;;18.10;91.20;;;;;;5080648;28;20143;-59
2022/06/16 00:44:41;;;;;;;10.70;3.08;;;18.10;92.40;;;;;;5077122;28;20056;-60
2022/06/16 00:47:08;;;;;;;7.30;3.15;;;18.20;91.50;;;;;;5082733;28;20125;-60
2022/06/16 00:49:36;;;;;;;9.98;3.55;;;18.20;91.50;;;;;;5075469;28;20098;-60
2022/06/16 00:52:08;;;;;;;9.30;3.33;;;18.10;91.70;;;;;;5068543;28;20122;-59
2022/06/16 00:54:51;;;;;;;7.25;3.55;;;18.10;92.20;;;;;;5079063;28;20113;-61
2022/06/16 00:57:23;;;;;;;5.30;3.42;;;18.00;93.10;;;;;;5069750;28;20261;-60
2022/06/16 00:59:50;;;;;;;5.00;2.97;;;18.10;92.30;;;;;;5059579;28;20044;-60
2022/06/16 01:02:19;;;;;;;8.10;3.40;;;18.00;92.30;;;;;;5073102;28;20059;-60
2022/06/16 01:04:52;;;;;;;7.82;3.88;;;18.00;92.80;;;;;;5083844;28;20044;-60
2022/06/16 01:07:30;;;;;;;7.72;3.47;;;18.00;92.70;;;;;;5088630;28;20448;-61
2022/06/16 01:09:57;;;;;;;8.82;3.25;;;18.00;93.80;;;;;;5082787;28;20126;-60
2022/06/16 01:15:49;;;;;;;8.95;3.53;;;17.80;94.50;;;;;;5076690;28;20602;-58
2022/06/16 01:18:30;;;;;;;12.40;3.35;;;17.80;94.10;;;;;;5082295;28;20082;-59
2022/06/16 01:21:22;;;;;;;11.50;3.55;;;17.80;93.50;;;;;;5076964;28;20090;-59
2022/06/16 01:24:20;;;;;;;8.68;3.63;;;17.80;93.70;;;;;;4727886;28;10000722;-60
2022/06/16 01:26:55;;;;;;;9.60;3.25;;;17.70;94.90;;;;;;5077073;28;20109;-60
2022/06/16 01:29:41;;;;;;;9.88;4.18;;;17.70;93.70;;;;;;5072661;28;20113;-59
2022/06/16 01:32:16;;;;;;;7.05;4.10;;;17.70;93.90;;;;;;5079567;28;20084;-59
2022/06/16 01:34:46;;;;;;;8.23;3.40;;;17.60;94.60;;;;;;5072180;28;20048;-59
2022/06/16 01:37:25;;;;;;;8.38;3.33;;;17.50;94.40;;;;;;5079476;28;20119;-59
2022/06/16 01:40:30;;;;;;;5.40;2.90;;;17.40;95.60;;;;;;5074625;28;20193;-59
2022/06/16 01:43:08;;;;;;;17.45;3.50;;;17.20;97.10;;;;;;5064395;28;20134;-59
2022/06/16 01:45:55;;;;;;;9.55;5.55;;;17.10;95.70;;;;;;5072417;28;20048;-60
2022/06/16 01:48:21;;;;;;;6.80;3.35;;;17.10;98.00;;;;;;5075413;28;20041;-59
2022/06/16 01:50:58;;;;;;;7.47;3.80;;;17.10;96.20;;;;;;5071108;28;20083;-59
2022/06/16 01:53:41;;;;;;;10.20;4.35;;;17.10;97.30;;;;;;5064928;28;20135;-59
2022/06/16 01:56:51;;;;;;;8.70;3.60;;;17.10;97.20;;;;;;5057497;28;20123;-58
2022/06/16 01:59:20;;;;;;;9.20;4.25;;;17.10;98.60;;;;;;5022435;28;20087;-58
2022/06/16 02:01:49;;;;;;;8.18;3.70;;;17.10;96.70;;;;;;5076476;28;20040;-59
2022/06/16 02:04:28;;;;;;;12.00;4.35;;;17.00;96.90;;;;;;5067249;28;20055;-59
2022/06/16 02:07:00;;;;;;;9.95;4.30;;;17.00;98.00;;;;;;5066917;28;20044;-59
2022/06/16 02:09:32;;;;;;;9.07;3.90;;;17.00;97.60;;;;;;5080145;28;20048;-58
2022/06/16 02:12:00;;;;;;;7.00;4.00;;;17.00;97.50;;;;;;5065477;28;20040;-61
2022/06/16 02:14:33;;;;;;;8.75;4.45;;;16.90;97.40;;;;;;5078338;28;20091;-59
2022/06/16 02:17:00;;;;;;;6.03;3.45;;;16.90;98.30;;;;;;5074923;28;20046;-59
2022/06/16 02:19:27;;;;;;;8.20;4.13;;;16.80;97.80;;;;;;5075399;28;20131;-59
2022/06/16 02:21:54;;;;;;;8.55;3.38;;;16.70;98.10;;;;;;5074665;28;20095;-59
2022/06/16 02:24:25;;;;;;;8.27;3.70;;;16.70;98.30;;;;;;5069533;28;20491;-59
2022/06/16 02:26:56;;;;;;;13.20;4.03;;;16.70;98.30;;;;;;5061221;28;20535;-59
2022/06/16 02:29:30;;;;;;;8.73;4.30;;;16.80;98.80;;;;;;5078333;28;20040;-60
2022/06/16 02:32:27;;;;;;;12.15;4.47;;;16.70;98.30;;;;;;5085722;28;20448;-59
2022/06/16 02:35:17;;;;;;;14.48;3.92;;;16.80;99.90;;;;;;5074945;28;20158;-61
2022/06/16 02:38:04;;;;;;;13.07;3.55;;;16.70;99.10;;;;;;5088733;28;20131;-58
2022/06/16 02:40:40;;;;;;;5.50;3.42;;;16.70;99.90;;;;;;5077375;28;20060;-60
2022/06/16 02:43:41;;;;;;;8.73;3.45;;;16.70;99.80;;;;;;5086445;28;20127;-59
2022/06/16 02:47:00;;;;;;;12.10;3.95;;;16.60;99.90;;;;;;5086153;28;20127;-59
2022/06/16 02:49:37;;;;;;;6.90;3.58;;;16.60;99.90;;;;;;5068578;28;20123;-59
2022/06/16 02:52:45;;;;;;;5.60;3.45;;;16.60;99.70;;;;;;5084047;28;20067;-59
2022/06/16 02:55:21;;;;;;;7.78;3.55;;;16.50;99.90;;;;;;5003320;28;20547;-59
2022/06/16 02:57:59;;;;;;;8.25;3.17;;;16.40;99.60;;;;;;5017022;28;20064;-59
2022/06/16 03:00:38;;;;;;;6.82;4.47;;;16.50;99.90;;;;;;5044053;28;20104;-59
2022/06/16 03:03:17;;;;;;;17.42;5.38;;;16.40;99.90;;;;;;5073961;28;20582;-57
2022/06/16 03:05:44;;;;;;;11.63;4.35;;;16.30;99.90;;;;;;5074594;28;20052;-59
2022/06/16 03:08:11;;;;;;;11.38;5.40;;;16.30;99.60;;;;;;5075110;28;20127;-59
2022/06/16 03:10:54;;;;;;;7.78;4.93;;;16.30;99.80;;;;;;5082984;28;20123;-59
2022/06/16 03:13:23;;;;;;;8.32;4.68;;;16.20;99.90;;;;;;5073808;28;20479;-59
2022/06/16 03:15:51;;;;;;;12.27;6.05;;;16.10;99.90;;;;;;5082640;28;20072;-59
2022/06/16 03:18:18;;;;;;;11.90;5.18;;;16.10;99.90;;;;;;5075465;28;20067;-59
2022/06/16 03:20:45;;;;;;;11.93;5.10;;;16.10;99.90;;;;;;5082213;28;20466;-58
2022/06/16 03:23:11;;;;;;;7.95;4.55;;;16.00;99.90;;;;;;5075030;28;20550;-58
2022/06/16 03:25:38;;;;;;;12.90;4.50;;;16.10;99.90;;;;;;5082641;28;20048;-59
2022/06/16 03:28:05;;;;;;;9.40;4.80;;;16.00;99.90;;;;;;5073763;28;20511;-59
2022/06/16 03:30:33;;;;;;;10.93;4.38;;;16.10;99.90;;;;;;5081233;28;20131;-59
2022/06/16 03:33:01;;;;;;;11.57;4.63;;;16.00;99.90;;;;;;5074825;28;20055;-57
2022/06/16 03:35:28;;;;;;;8.95;4.18;;;16.00;99.90;;;;;;5079097;28;20075;-59
2022/06/16 03:37:54;;;;;;;7.30;4.15;;;16.00;99.90;;;;;;5078308;28;20119;-59
2022/06/16 03:40:22;;;;;;;9.07;4.55;;;16.00;99.90;;;;;;5078262;28;20444;-58
2022/06/16 03:42:49;;;;;;;10.98;4.90;;;16.00;99.90;;;;;;5075551;28;20497;-59
2022/06/16 03:45:16;;;;;;;16.23;5.97;;;16.00;99.90;;;;;;5078216;28;20048;-59
2022/06/16 03:47:43;;;;;;;13.55;5.13;;;15.90;99.90;;;;;;5109065;27;20084;-59
2022/06/16 03:50:15;;;;;;;9.50;4.50;;;15.90;99.90;;;;;;5077336;28;20119;-59
2022/06/16 03:52:41;;;;;;;12.50;4.57;;;15.80;99.90;;;;;;5075562;28;20099;-59
2022/06/16 03:55:08;;;;;;;9.98;4.97;;;15.90;99.90;;;;;;5076890;28;20135;-59
2022/06/16 03:57:35;;;;;;;11.60;4.88;;;15.90;99.90;;;;;;5077983;28;20048;-59
2022/06/16 04:00:03;;;;;;;13.52;6.65;;;15.90;99.90;;;;;;5074584;28;20127;-57
2022/06/16 04:02:31;;;;;;;10.82;5.38;;;15.80;99.90;;;;;;5084666;28;20097;-59
2022/06/16 04:04:58;;;;;;;11.18;4.78;;;15.70;99.90;;;;;;5081332;28;20059;-58
2022/06/16 04:07:25;;;;;;;9.75;3.88;;;15.80;99.90;;;;;;5083156;28;20131;-58
2022/06/16 04:09:52;;;;;;;17.27;5.05;;;15.80;99.90;;;;;;5074115;28;20229;-59
2022/06/16 04:12:18;;;;;;;8.88;4.45;;;15.80;99.90;;;;;;5081486;28;20064;-60
2022/06/16 04:14:45;;;;;;;6.13;4.90;;;15.80;99.90;;;;;;5074078;28;20146;-59
2022/06/16 04:17:12;;;;;;;11.48;5.55;;;15.80;99.90;;;;;;5081399;28;20050;-59
2022/06/16 04:20:11;;;;;;;10.35;4.70;;;15.80;99.90;;;;;;5073921;28;20134;-59
2022/06/16 04:22:28;;;;;;;11.15;4.93;;;15.90;99.90;;;;;;5079072;28;20131;-59
2022/06/16 04:24:55;;;;;;;7.72;4.60;;;15.90;99.90;;;;;;5083537;28;20481;-60
2022/06/16 04:27:22;;;;;;;9.30;4.50;;;15.90;99.90;;;;;;5088517;28;20119;-60
2022/06/16 04:29:50;;;;;;;7.50;3.83;;;15.80;99.90;;;;;;5084248;28;20498;-59
2022/06/16 04:32:17;;;;;;;11.90;5.38;;;15.70;99.90;;;;;;5077246;28;20481;-59
2022/06/16 04:34:44;;;;;;;9.88;5.35;;;15.70;99.90;;;;;;5081012;28;20095;-59
2022/06/16 04:37:11;;;;;;;14.38;5.90;;;15.70;99.90;;;;;;5075924;28;20044;-58
2022/06/16 04:39:38;;;;;;;10.40;6.28;;;15.70;99.90;;;;;;5081707;28;20048;-59
2022/06/16 04:42:05;;;;;;;12.90;6.30;;;15.70;99.90;;;;;;5079322;28;20468;-59
2022/06/16 04:44:34;;;;;;;14.63;5.72;;;15.80;99.90;;;;;;5079929;28;20044;-59
2022/06/16 04:47:03;;;;;;;13.93;7.68;;;15.80;99.90;;;;;;5076831;28;20032;-60
2022/06/16 04:49:30;;;;;;;10.43;6.68;;;15.90;99.90;;;;;;5075874;28;20143;-58
2022/06/16 04:51:57;;;;;;;13.60;6.35;;;15.90;99.90;;;;;;5074610;28;20131;-59
2022/06/16 04:54:24;;;;;;;12.02;5.68;;;16.00;99.90;;;;;;5077829;28;20349;-59
2022/06/16 04:56:51;;;;;;;15.25;6.32;;;16.10;99.90;;;;;;5072751;28;20082;-59
2022/06/16 04:59:18;;;;;;;12.30;5.82;;;16.10;99.90;;;;;;5079129;28;20135;-61
2022/06/16 05:01:45;;;;;;;9.00;5.78;;;16.10;99.90;;;;;;5071343;28;20052;-58
2022/06/16 05:04:13;;;;;;;10.55;5.72;;;16.20;99.90;;;;;;5080466;28;20062;-59
2022/06/16 05:06:39;;;;;;;10.65;5.53;;;16.20;99.90;;;;;;5072627;28;20079;-60
2022/06/16 05:09:10;;;;;;;12.30;6.15;;;16.40;99.90;;;;;;5079121;28;20094;-57
2022/06/16 05:11:36;;;;;;;10.02;6.13;;;16.40;99.90;;;;;;5072467;28;20074;-60
2022/06/16 05:14:03;;;;;;;11.95;5.70;;;16.50;99.90;;;;;;5078310;28;20094;-60
2022/06/16 05:16:30;;;;;;;18.33;6.22;;;16.60;99.90;;;;;;5072622;28;20131;-59
2022/06/16 05:18:57;;;;;;;14.35;5.93;;;16.60;99.90;;;;;;5077259;28;20520;-59
2022/06/16 05:21:24;;;;;;;15.18;6.20;;;16.70;99.90;;;;;;5083581;28;20079;-59
2022/06/16 05:23:51;;;;;;;10.70;4.82;;;16.70;99.90;;;;;;5074946;28;20135;-60
2022/06/16 05:26:18;;;;;;;14.60;4.85;;;16.80;99.90;;;;;;5091234;28;20078;-59
2022/06/16 05:28:45;;;;;;;14.13;5.82;;;16.90;99.90;;;;;;5076406;28;20503;-59
2022/06/16 05:31:11;;;;;;;11.27;5.25;;;16.90;99.90;;;;;;5086318;28;20094;-60
2022/06/16 05:33:38;;;;;;;12.60;4.22;;;17.00;99.90;;;;;;5074635;28;20134;-59
2022/06/16 05:36:08;;;;;;;13.65;4.20;;;17.10;99.90;;;;;;5074293;28;20083;-59
2022/06/16 05:38:35;;;;;;;10.80;4.20;;;17.10;99.90;;;;;;5113960;28;20084;-59
2022/06/16 05:41:07;;;;;;;12.02;3.63;;;17.10;99.90;;;;;;5076137;28;20052;-60
2022/06/16 05:43:34;;;;;;;6.40;3.35;;;17.20;99.90;;;;;;5071001;28;20059;-59
2022/06/16 05:46:01;;;;;;;8.40;3.63;;;17.30;99.90;;;;;;5077367;28;20087;-59
2022/06/16 05:48:28;;;;;;;9.13;3.92;;;17.20;99.90;;;;;;5071072;28;20101;-59
2022/06/16 05:50:55;;;;;;;9.38;3.22;;;17.20;99.90;;;;;;5063039;28;20113;-60
2022/06/16 05:53:22;;;;;;;8.70;3.13;;;17.20;99.90;;;;;;5075212;28;20131;-59
2022/06/16 05:55:49;;;;;;;10.50;3.33;;;17.40;99.90;;;;;;5074489;28;20102;-60
2022/06/16 05:58:17;;;;;;;23.98;4.57;;;17.50;99.90;;;;;;5084513;28;20082;-59
2022/06/16 06:00:44;;;;;;;7.88;3.00;;;17.50;99.90;;;;;;5077434;28;20114;-59
2022/06/16 06:03:11;;;;;;;19.33;4.90;;;17.50;99.90;;;;;;5082982;28;20105;-59
2022/06/16 06:05:38;;;;;;;13.20;4.50;;;17.50;99.90;;;;;;5078747;28;20123;-59
2022/06/16 06:16:55;;;;;;;12.18;3.80;;;17.60;99.90;;;;;;5076295;28;20329;-58
2022/06/16 06:19:23;;;;;;;7.40;4.25;;;17.60;99.90;;;;;;5082212;28;20036;-59
2022/06/16 06:21:58;;;;;;;9.57;3.63;;;17.70;99.90;;;;;;5076828;28;20459;-58
2022/06/16 06:24:26;;;;;;;11.77;5.47;;;17.70;99.90;;;;;;5084852;28;20051;-59
2022/06/16 06:26:53;;;;;;;10.98;5.00;;;17.70;99.90;;;;;;5076926;28;20467;-58
2022/06/16 06:29:20;;;;;;;7.90;3.88;;;17.80;99.90;;;;;;5083419;28;20084;-59
2022/06/16 06:31:46;;;;;;;9.88;3.70;;;17.80;99.90;;;;;;5075402;28;20114;-59
2022/06/16 06:34:13;;;;;;;8.05;4.28;;;17.90;99.90;;;;;;5084410;28;20040;-59
2022/06/16 06:36:40;;;;;;;12.63;4.97;;;18.00;99.90;;;;;;5088611;28;20094;-58
2022/06/16 06:39:07;;;;;;;14.95;4.63;;;18.10;99.90;;;;;;5073862;28;20044;-59
2022/06/16 06:41:34;;;;;;;13.02;6.45;;;18.10;99.90;;;;;;5080360;28;20096;-62
2022/06/16 06:44:01;;;;;;;10.40;4.72;;;18.20;99.90;;;;;;5083463;28;20079;-58
2022/06/16 06:46:28;;;;;;;15.13;4.15;;;18.30;99.90;;;;;;5082082;28;20100;-63
2022/06/16 06:49:02;;;;;;;10.15;4.82;;;18.30;99.90;;;;;;5085596;28;20139;-59
2022/06/16 06:51:31;;;;;;;9.63;4.22;;;18.40;99.90;;;;;;5080287;28;20102;-58
2022/06/16 06:53:58;;;;;;;9.50;4.22;;;18.50;99.70;;;;;;5082423;28;20048;-58
2022/06/16 06:56:25;;;;;;;13.73;4.55;;;18.50;99.80;;;;;;5087588;28;20119;-58
2022/06/16 06:58:53;;;;;;;9.90;4.13;;;18.50;99.50;;;;;;5069037;28;20459;-59
2022/06/16 07:01:19;;;;;;;11.68;4.75;;;18.60;99.60;;;;;;5084167;28;20525;-59
2022/06/16 07:03:49;;;;;;;12.60;4.78;;;18.60;99.50;;;;;;5084735;28;20117;-58
2022/06/16 07:06:18;;;;;;;11.35;4.13;;;18.70;99.40;;;;;;5085569;28;20042;-59
2022/06/16 07:08:45;;;;;;;11.23;4.07;;;18.80;99.60;;;;;;5094674;28;20048;-59
2022/06/16 07:11:12;;;;;;;10.23;4.22;;;18.80;99.40;;;;;;5072818;28;20084;-58
2022/06/16 07:13:42;;;;;;;13.10;4.40;;;18.90;99.30;;;;;;5081036;28;20075;-60
2022/06/16 07:16:09;;;;;;;7.35;4.03;;;19.00;99.20;;;;;;5074121;28;20049;-56
2022/06/16 07:18:37;;;;;;;17.60;4.15;;;19.00;99.20;;;;;;5080326;28;20447;-61
2022/06/16 07:21:04;;;;;;;11.48;3.88;;;19.00;99.00;;;;;;5070310;28;20566;-57
2022/06/16 07:23:32;;;;;;;11.15;3.40;;;19.10;99.00;;;;;;5079439;28;20521;-58
2022/06/16 07:26:00;;;;;;;11.10;3.90;;;19.10;99.00;;;;;;5071769;28;20040;-60
2022/06/16 07:28:27;;;;;;;12.57;4.25;;;19.20;98.90;;;;;;5077120;28;20151;-60
2022/06/16 07:30:53;;;;;;;9.02;4.13;;;19.30;98.90;;;;;;5071669;28;20147;-62
2022/06/16 07:33:42;;;;;;;19.33;4.97;;;19.40;99.20;;;;;;5077934;28;20414;-60
2022/06/16 07:36:10;;;;;;;11.82;4.53;;;19.50;98.70;;;;;;5072613;28;20596;-60
2022/06/16 07:38:38;;;;;;;13.88;4.93;;;19.60;98.50;;;;;;5075833;28;20079;-59
2022/06/16 07:43:54;;;;;;;10.43;4.53;;;19.80;97.90;;;;;;5077078;28;20431;-60
2022/06/16 07:46:22;;;;;;;14.10;4.35;;;19.80;97.80;;;;;;5080960;28;20040;-61
2022/06/16 07:48:51;;;;;;;12.38;6.35;;;19.90;97.90;;;;;;5078734;28;20067;-60
2022/06/16 07:51:18;;;;;;;9.98;4.85;;;20.00;97.90;;;;;;5080545;28;20503;-61
2022/06/16 07:53:47;;;;;;;11.30;4.30;;;20.10;97.80;;;;;;5079275;28;20048;-60
2022/06/16 07:56:15;;;;;;;6.45;4.28;;;20.10;97.90;;;;;;5075132;28;20055;-60
2022/06/16 07:58:43;;;;;;;12.50;4.70;;;20.10;97.50;;;;;;5076601;28;20074;-59
2022/06/16 08:01:11;;;;;;;13.43;5.32;;;20.20;97.30;;;;;;5074594;28;20131;-62
2022/06/16 08:03:38;;;;;;;11.93;4.32;;;20.30;97.10;;;;;;5075429;28;20070;-61
2022/06/16 08:06:09;;;;;;;11.00;4.90;;;20.30;97.20;;;;;;5066527;28;20055;-59
2022/06/16 08:08:37;;;;;;;11.48;6.03;;;20.40;97.20;;;;;;5080712;28;20519;-59
2022/06/16 08:11:04;;;;;;;14.90;5.03;;;20.50;97.00;;;;;;5077917;28;20079;-60
2022/06/16 08:13:31;;;;;;;16.10;4.25;;;20.50;96.90;;;;;;5081987;28;20052;-59
2022/06/16 08:15:57;;;;;;;10.27;4.05;;;20.70;96.90;;;;;;5075396;28;20055;-60
2022/06/16 08:18:25;;;;;;;5.50;3.92;;;20.80;96.90;;;;;;5081907;28;20063;-59
2022/06/16 08:20:52;;;;;;;8.35;4.10;;;20.80;96.60;;;;;;5072445;28;20048;-59
2022/06/16 08:23:19;;;;;;;10.63;4.35;;;20.90;96.80;;;;;;5081234;28;20539;-60
2022/06/16 08:25:46;;;;;;;12.90;5.55;;;20.90;96.80;;;;;;5073235;28;20094;-60
2022/06/16 08:28:14;;;;;;;11.55;3.92;;;21.00;96.50;;;;;;5079639;28;20048;-59
2022/06/16 08:30:46;;;;;;;9.88;4.35;;;21.00;96.60;;;;;;5072103;28;20700;-60
2022/06/16 08:33:14;;;;;;;9.57;4.53;;;21.10;96.40;;;;;;5079571;28;20493;-60
2022/06/16 08:35:42;;;;;;;15.02;4.10;;;21.20;96.00;;;;;;5074534;28;20048;-59
2022/06/16 08:38:09;;;;;;;12.80;4.78;;;21.30;96.30;;;;;;5081182;28;20128;-59
2022/06/16 08:40:39;;;;;;;11.07;4.13;;;21.40;96.30;;;;;;5068546;28;20559;-58
2022/06/16 08:43:10;;;;;;;11.40;3.92;;;21.50;96.40;;;;;;5067268;28;20126;-59
2022/06/16 08:45:38;;;;;;;14.55;4.53;;;21.60;95.80;;;;;;5055941;28;20151;-59
2022/06/16 08:48:26;;;;;;;8.93;3.90;;;21.60;95.80;;;;;;5067522;28;20130;-58
2022/06/16 08:51:08;;;;;;;8.45;3.75;;;21.90;95.40;;;;;;5076144;28;20455;-59
2022/06/16 08:54:00;;;;;;;6.97;3.55;;;22.00;95.50;;;;;;5080310;28;20052;-59
2022/06/16 08:56:47;;;;;;;8.00;3.53;;;22.00;96.10;;;;;;5075396;28;20076;-59
2022/06/16 08:59:33;;;;;;;11.45;3.53;;;22.10;94.70;;;;;;5072774;28;20093;-59
2022/06/16 09:02:36;;;;;;;6.78;3.05;;;22.20;94.90;;;;;;5074405;28;20087;-59
2022/06/16 09:05:39;;;;;;;9.88;2.75;;;22.30;94.40;;;;;;5015586;28;20090;-58
2022/06/16 09:08:19;;;;;;;8.75;4.22;;;22.30;94.30;;;;;;5069257;28;20082;-59
2022/06/16 09:10:56;;;;;;;8.70;3.50;;;22.40;94.60;;;;;;5074594;28;20087;-59
2022/06/16 09:13:34;;;;;;;5.65;2.67;;;22.40;94.40;;;;;;5073606;28;20476;-60
2022/06/16 09:16:28;;;;;;;10.00;3.05;;;22.50;94.80;;;;;;5082319;28;20044;-58
2022/06/16 09:19:07;;;;;;;6.63;3.42;;;22.70;94.60;;;;;;5079280;28;20079;-60
2022/06/16 09:21:47;;;;;;;13.40;3.55;;;22.90;94.50;;;;;;5077091;28;20091;-60
2022/06/16 09:24:59;;;;;;;9.38;3.83;;;23.10;94.20;;;;;;5082103;28;20044;-60
2022/06/16 09:27:37;;;;;;;5.03;3.08;;;23.30;92.90;;;;;;4981348;28;20077;-60
2022/06/16 09:30:08;;;;;;;6.65;2.97;;;23.30;93.30;;;;;;5052086;28;20522;-59
2022/06/16 09:32:47;;;;;;;5.30;3.03;;;23.50;93.00;;;;;;5073793;28;20071;-58
2022/06/16 09:35:23;;;;;;;9.45;3.45;;;23.60;92.30;;;;;;5076481;28;20485;-58
2022/06/16 09:38:02;;;;;;;5.50;3.37;;;23.80;91.60;;;;;;5080012;28;20098;-59
2022/06/16 09:40:36;;;;;;;10.82;3.80;;;24.00;90.60;;;;;;5076106;28;20060;-59
2022/06/16 09:43:09;;;;;;;10.35;2.88;;;24.10;89.20;;;;;;5083323;28;20050;-60
2022/06/16 09:45:47;;;;;;;4.93;2.58;;;24.10;89.80;;;;;;5074773;28;20040;-59
2022/06/16 09:48:23;;;;;;;9.45;3.20;;;24.20;86.30;;;;;;5082954;28;20071;-59
2022/06/16 09:51:19;;;;;;;6.80;2.03;;;24.30;87.70;;;;;;5075105;28;20140;-60
2022/06/16 09:54:11;;;;;;;5.32;2.53;;;24.40;84.60;;;;;;5082025;28;20055;-59
2022/06/16 09:56:48;;;;;;;7.28;2.50;;;24.40;83.00;;;;;;5075824;28;20056;-58
2022/06/16 09:59:22;;;;;;;5.30;2.00;;;24.60;84.80;;;;;;5081959;28;20076;-59
2022/06/16 10:01:53;;;;;;;6.28;2.20;;;24.70;80.40;;;;;;5074499;28;20128;-58
2022/06/16 10:04:23;;;;;;;12.30;2.33;;;24.80;80.40;;;;;;5081494;28;20097;-58
2022/06/16 10:07:07;;;;;;;7.10;2.33;;;24.90;80.90;;;;;;5074670;28;20083;-59
2022/06/16 10:09:54;;;;;;;6.88;2.42;;;25.00;77.60;;;;;;5081707;28;20083;-59
2022/06/16 10:12:36;;;;;;;5.45;1.75;;;25.20;75.70;;;;;;5074773;28;20060;-59
2022/06/16 10:15:18;;;;;;;7.95;2.33;;;25.20;71.50;;;;;;5078159;28;20109;-59
2022/06/16 10:17:46;;;;;;;9.13;2.17;;;25.40;71.90;;;;;;5082507;28;20082;-59
2022/06/16 10:20:14;;;;;;;6.57;1.70;;;25.70;71.80;;;;;;5066274;28;20075;-59
2022/06/16 10:22:56;;;;;;;4.97;1.98;;;25.90;72.40;;;;;;5078565;28;20181;-59
2022/06/16 10:25:28;;;;;;;9.88;2.30;;;26.00;69.10;;;;;;5061419;28;20539;-63
2022/06/16 10:28:16;;;;;;;4.90;2.63;;;26.20;71.10;;;;;;5084078;28;20487;-59
2022/06/16 10:30:43;;;;;;;5.68;1.42;;;26.40;68.10;;;;;;5081164;28;20052;-59
2022/06/16 10:33:22;;;;;;;4.53;1.67;;;26.50;67.00;;;;;;5084158;28;20097;-59
2022/06/16 10:36:01;;;;;;;4.47;1.65;;;26.40;64.80;;;;;;5074083;28;20095;-59
2022/06/16 10:38:36;;;;;;;9.73;2.20;;;26.50;64.30;;;;;;5068112;28;20072;-59
2022/06/16 10:41:20;;;;;;;4.43;1.50;;;26.50;65.20;;;;;;5074535;28;20135;-60
2022/06/16 10:43:47;;;;;;;4.18;1.63;;;26.60;64.90;;;;;;5074692;28;20486;-60
2022/06/16 10:46:19;;;;;;;3.65;1.50;;;26.80;66.40;;;;;;5078092;28;20136;-60
2022/06/16 10:48:53;;;;;;;9.55;2.15;;;26.90;66.00;;;;;;5076436;28;20360;-59
2022/06/16 10:51:22;;;;;;;5.60;2.28;;;27.00;64.00;;;;;;5079017;28;20075;-59
2022/06/16 10:54:20;;;;;;;9.85;2.50;;;27.20;65.30;;;;;;5075440;28;20135;-59
2022/06/16 10:56:47;;;;;;;8.25;2.30;;;27.20;63.20;;;;;;5076665;28;20072;-58
2022/06/16 10:59:14;;;;;;;10.35;2.65;;;27.10;64.30;;;;;;5081335;28;20056;-59
2022/06/16 11:01:53;;;;;;;3.50;1.63;;;27.10;62.10;;;;;;5079800;28;20090;-58
2022/06/16 11:04:24;;;;;;;6.18;1.58;;;26.80;60.10;;;;;;5082333;28;20048;-59
2022/06/16 11:06:56;;;;;;;3.92;2.08;;;26.70;61.20;;;;;;5079515;28;20048;-58
2022/06/16 11:09:27;;;;;;;7.47;1.60;;;26.50;59.90;;;;;;5082254;28;20059;-58
2022/06/16 11:11:57;;;;;;;4.78;2.05;;;26.30;61.70;;;;;;5077122;28;20301;-58
2022/06/16 11:14:30;;;;;;;6.80;1.90;;;26.30;63.90;;;;;;5084258;28;20055;-59
2022/06/16 11:16:57;;;;;;;5.30;2.17;;;26.40;63.50;;;;;;5073459;28;20040;-58
2022/06/16 11:19:35;;;;;;;7.47;2.40;;;26.40;63.20;;;;;;5072697;28;20074;-58
2022/06/16 11:22:16;;;;;;;9.52;3.15;;;26.40;58.60;;;;;;5080375;28;20132;-59
2022/06/16 11:25:06;;;;;;;4.63;1.60;;;26.40;60.30;;;;;;5072944;28;20041;-60
2022/06/16 11:27:44;;;;;;;9.20;1.83;;;26.40;60.70;;;;;;4728412;28;10000660;-58
2022/06/16 11:30:35;;;;;;;8.60;2.53;;;26.40;60.90;;;;;;5078609;28;20084;-60
2022/06/16 11:33:02;;;;;;;5.05;1.55;;;26.50;61.30;;;;;;5077480;28;20546;-60
2022/06/16 11:35:43;;;;;;;5.55;1.38;;;26.50;62.50;;;;;;5078240;28;20381;-60
2022/06/16 11:38:23;;;;;;;6.32;1.80;;;26.50;60.10;;;;;;5075689;28;20045;-60
2022/06/16 11:40:54;;;;;;;7.55;2.00;;;26.50;61.50;;;;;;5080249;28;20049;-60
2022/06/16 11:43:39;;;;;;;4.63;1.70;;;26.60;60.30;;;;;;5077600;28;20083;-59
2022/06/16 11:46:10;;;;;;;6.00;2.00;;;26.70;56.00;;;;;;5077246;28;20055;-59
2022/06/16 11:49:11;;;;;;;6.40;2.25;;;26.80;59.10;;;;;;5077924;28;20044;-59
2022/06/16 11:52:33;;;;;;;9.80;2.97;;;26.80;59.50;;;;;;5076881;28;20563;-60
2022/06/16 11:55:15;;;;;;;10.27;2.80;;;26.60;58.80;;;;;;5049062;28;20135;-61
2022/06/16 11:57:55;;;;;;;2.72;1.92;;;26.70;60.10;;;;;;5066667;28;20102;-60
2022/06/16 12:00:42;;;;;;;10.02;2.70;;;26.80;60.20;;;;;;5068757;28;20075;-60
2022/06/16 12:03:37;;;;;;;8.35;2.97;;;27.00;59.00;;;;;;5071498;28;20064;-61
2022/06/16 12:06:23;;;;;;;10.45;3.10;;;27.20;60.50;;;;;;5077480;28;20132;-59
2022/06/16 12:09:02;;;;;;;3.13;1.90;;;27.30;60.00;;;;;;5069966;28;20054;-60
2022/06/16 12:11:39;;;;;;;12.60;2.40;;;27.40;61.10;;;;;;5070710;28;20147;-63
2022/06/16 12:14:52;;;;;;;9.00;2.20;;;27.50;61.10;;;;;;5073105;28;20047;-60
2022/06/16 12:17:24;;;;;;;10.95;2.70;;;27.50;61.30;;;;;;5050948;28;20087;-60
2022/06/16 12:20:11;;;;;;;4.25;1.70;;;27.50;58.00;;;;;;5070659;28;20503;-61
2022/06/16 12:23:36;;;;;;;26.45;5.47;;;27.40;57.20;;;;;;5074293;28;20078;-59
2022/06/16 12:26:09;;;;;;;5.72;2.25;;;27.50;57.80;;;;;;5071926;28;20052;-60
2022/06/16 12:29:02;;;;;;;9.70;2.60;;;27.50;58.80;;;;;;5063712;28;20071;-59
2022/06/16 12:31:47;;;;;;;4.15;2.17;;;27.50;59.20;;;;;;5069369;28;20407;-59
2022/06/16 12:34:40;;;;;;;8.77;3.13;;;27.50;58.40;;;;;;5073138;28;20054;-60
2022/06/16 12:37:11;;;;;;;4.90;2.03;;;27.50;59.70;;;;;;5072553;28;20048;-60
2022/06/16 12:39:44;;;;;;;4.32;2.10;;;27.40;57.90;;;;;;5076277;28;20056;-60
2022/06/16 12:42:13;;;;;;;2.63;1.70;;;27.50;58.00;;;;;;5060275;28;20052;-60
2022/06/16 12:44:49;;;;;;;5.65;1.83;;;27.60;57.00;;;;;;5076823;28;20143;-60
2022/06/16 12:47:27;;;;;;;3.90;2.45;;;27.40;57.20;;;;;;5069289;28;20119;-65
2022/06/16 12:50:03;;;;;;;5.53;2.17;;;27.50;57.10;;;;;;5077939;28;20119;-59
2022/06/16 12:52:58;;;;;;;4.72;1.65;;;27.60;56.60;;;;;;5069311;28;20125;-59
2022/06/16 12:55:34;;;;;;;6.80;1.60;;;27.70;56.80;;;;;;5073254;28;20083;-60
2022/06/16 12:58:08;;;;;;;5.20;1.67;;;27.80;58.00;;;;;;5074135;28;20072;-60
2022/06/16 13:00:38;;;;;;;8.95;2.15;;;27.70;56.20;;;;;;5074684;28;20533;-59
2022/06/16 13:03:08;;;;;;;6.82;1.90;;;27.70;58.00;;;;;;5083378;28;20059;-59
2022/06/16 13:05:36;;;;;;;4.78;1.70;;;27.70;55.50;;;;;;5067454;28;20056;-60
2022/06/16 13:08:03;;;;;;;8.32;2.03;;;27.80;55.20;;;;;;5068995;28;20361;-60
2022/06/16 13:10:42;;;;;;;5.03;1.65;;;27.60;53.80;;;;;;5062259;28;20049;-59
2022/06/16 13:13:09;;;;;;;9.13;1.88;;;27.70;53.40;;;;;;5068712;28;20090;-59
2022/06/16 13:15:42;;;;;;;4.22;1.58;;;28.00;54.40;;;;;;5077814;28;20054;-60
2022/06/16 13:18:45;;;;;;;4.30;1.50;;;28.10;54.00;;;;;;5074958;28;20129;-60
2022/06/16 13:21:23;;;;;;;3.95;1.77;;;28.20;52.60;;;;;;5080328;28;20101;-60
2022/06/16 13:23:56;;;;;;;5.03;1.45;;;28.20;51.50;;;;;;5081247;28;20409;-63
2022/06/16 13:26:27;;;;;;;4.28;1.73;;;28.20;52.00;;;;;;5067123;28;20052;-60
2022/06/16 13:29:02;;;;;;;11.60;1.73;;;28.20;51.70;;;;;;5079043;28;20131;-60
2022/06/16 13:31:55;;;;;;;3.08;1.45;;;28.30;51.60;;;;;;5069218;28;20137;-60